Time;durP1;ratioP1;P1;durP2;ratioP2;P2;SDS_P1;SDS_P2;PMS_P1;PMS_P2;Temp;Humidity;BMP_temperature;BMP_pressure;BME280_temperature;BME280_humidity;BME280_pressure;Samples;Min_cycle;Max_cycle;Signal;HPM_P1;HPM_P2
2022/01/27 00:05:28;;;;;;;31.25;12.77;;;6.20;99.90;;;;;;5036259;28;20056;-64
2022/01/27 00:13:10;;;;;;;25.17;10.13;;;6.10;99.90;;;;;;5048586;28;20099;-64
2022/01/27 00:15:38;;;;;;;20.85;9.30;;;6.10;99.90;;;;;;5038266;28;20042;-64
2022/01/27 00:18:09;;;;;;;22.50;8.98;;;6.10;99.90;;;;;;5048411;28;20049;-64
2022/01/27 00:20:34;;;;;;;29.95;12.75;;;6.10;99.90;;;;;;5047956;28;20044;-64
2022/01/27 00:23:00;;;;;;;16.48;6.90;;;6.10;99.90;;;;;;5047842;28;20494;-64
2022/01/27 00:25:26;;;;;;;22.67;10.73;;;6.10;99.90;;;;;;5014379;28;20053;-64
2022/01/27 00:27:53;;;;;;;26.27;11.63;;;6.10;99.90;;;;;;5047431;28;20037;-64
2022/01/27 00:30:18;;;;;;;35.47;16.65;;;6.10;99.90;;;;;;5048186;28;20060;-64
2022/01/27 00:32:44;;;;;;;12.18;6.82;;;6.10;99.90;;;;;;5028830;28;20037;-64
2022/01/27 00:35:10;;;;;;;17.35;8.35;;;6.10;99.90;;;;;;5029254;28;20049;-64
2022/01/27 00:37:36;;;;;;;20.83;7.47;;;6.20;99.90;;;;;;5037243;28;20084;-64
2022/01/27 00:40:04;;;;;;;21.02;10.38;;;6.20;99.90;;;;;;5017877;28;20152;-64
2022/01/27 00:42:31;;;;;;;23.70;9.68;;;6.20;99.90;;;;;;5019110;28;20041;-64
2022/01/27 00:44:58;;;;;;;24.52;9.70;;;6.10;99.90;;;;;;5028735;28;20094;-65
2022/01/27 00:47:24;;;;;;;29.55;11.10;;;6.10;99.90;;;;;;5023279;28;20049;-64
2022/01/27 00:49:50;;;;;;;11.57;5.30;;;6.10;99.90;;;;;;5035674;28;20655;-64
2022/01/27 00:52:24;;;;;;;28.65;10.80;;;6.10;99.90;;;;;;5030012;28;20112;-64
2022/01/27 00:54:52;;;;;;;27.35;11.27;;;6.00;99.90;;;;;;5045945;28;20513;-64
2022/01/27 00:59:59;;;;;;;16.58;7.05;;;6.10;99.90;;;;;;5046927;28;20183;-64
2022/01/27 01:05:04;;;;;;;25.15;11.65;;;6.10;99.90;;;;;;5040680;28;20060;-64
2022/01/27 01:07:35;;;;;;;26.13;10.05;;;6.10;99.90;;;;;;5034717;28;20083;-64
2022/01/27 01:15:22;;;;;;;20.05;7.97;;;6.10;99.90;;;;;;5014727;28;20107;-64
2022/01/27 01:33:56;;;;;;;23.08;8.73;;;6.00;99.90;;;;;;5033243;28;20102;-64
2022/01/27 01:36:36;;;;;;;29.08;12.75;;;6.00;99.90;;;;;;5044353;28;20199;-64
2022/01/27 01:39:05;;;;;;;31.98;10.63;;;6.00;99.90;;;;;;5029201;28;20105;-64
2022/01/27 01:41:32;;;;;;;17.73;8.77;;;6.00;99.90;;;;;;5040247;28;20041;-65
2022/01/27 01:43:58;;;;;;;28.83;10.27;;;6.00;99.90;;;;;;5042324;28;20450;-64
2022/01/27 01:46:24;;;;;;;27.15;11.30;;;5.90;99.90;;;;;;5018472;28;20097;-64
2022/01/27 01:48:49;;;;;;;35.00;14.02;;;5.90;99.90;;;;;;5045394;28;20605;-64
2022/01/27 01:51:25;;;;;;;22.38;9.38;;;5.90;99.90;;;;;;5038221;28;20045;-64
2022/01/27 01:53:51;;;;;;;18.50;8.27;;;5.90;99.90;;;;;;5044119;28;20048;-64
2022/01/27 01:56:17;;;;;;;24.80;11.80;;;6.00;99.90;;;;;;5045905;28;20032;-64
2022/01/27 01:58:43;;;;;;;14.30;6.72;;;5.90;99.90;;;;;;5042699;28;20041;-64
2022/01/27 02:01:09;;;;;;;16.23;9.07;;;5.90;99.90;;;;;;5028872;28;20047;-64
2022/01/27 02:03:34;;;;;;;19.63;10.38;;;5.90;99.90;;;;;;5026634;28;20182;-64
2022/01/27 02:06:00;;;;;;;25.80;10.63;;;6.00;99.90;;;;;;5025599;28;20041;-64
2022/01/27 02:19:13;;;;;;;15.82;7.75;;;5.80;99.90;;;;;;5037202;28;20052;-65
2022/01/27 02:21:58;;;;;;;32.22;14.25;;;5.80;99.90;;;;;;5044929;28;20059;-64
2022/01/27 02:24:28;;;;;;;24.05;9.25;;;5.90;99.90;;;;;;5041139;28;20099;-64
2022/01/27 02:26:55;;;;;;;34.40;11.52;;;5.80;99.90;;;;;;5047067;28;20495;-64
2022/01/27 02:29:22;;;;;;;20.83;9.30;;;5.90;99.90;;;;;;5023607;28;20045;-64
2022/01/27 02:31:49;;;;;;;27.95;9.75;;;5.90;99.90;;;;;;5043360;28;20041;-65
2022/01/27 02:34:15;;;;;;;29.15;10.48;;;5.90;99.90;;;;;;5035407;28;20047;-64
2022/01/27 02:36:41;;;;;;;24.05;11.00;;;5.90;99.90;;;;;;5037927;28;20091;-64
2022/01/27 02:39:10;;;;;;;19.45;9.75;;;5.90;99.90;;;;;;5011315;28;20056;-64
2022/01/27 02:41:49;;;;;;;31.73;14.25;;;5.90;99.90;;;;;;5042503;28;20072;-64
2022/01/27 02:44:52;;;;;;;23.88;12.02;;;5.90;99.90;;;;;;5037867;28;20045;-64
2022/01/27 02:47:19;;;;;;;23.02;11.98;;;5.90;99.90;;;;;;5034391;28;20156;-64
2022/01/27 02:49:45;;;;;;;17.70;9.35;;;5.90;99.90;;;;;;5040431;28;20091;-64
2022/01/27 02:52:12;;;;;;;28.60;11.90;;;5.90;99.90;;;;;;5045180;28;20076;-64
2022/01/27 02:54:38;;;;;;;19.25;9.38;;;5.90;99.90;;;;;;5015671;28;20056;-64
2022/01/27 02:57:04;;;;;;;23.92;11.77;;;5.90;99.90;;;;;;5045881;28;20045;-64
2022/01/27 02:59:30;;;;;;;33.45;14.07;;;6.00;99.90;;;;;;5035389;28;20103;-65
2022/01/27 03:01:57;;;;;;;21.52;10.90;;;6.00;99.90;;;;;;5023106;28;20033;-64
2022/01/27 03:04:24;;;;;;;32.35;13.70;;;6.00;99.90;;;;;;5039358;28;20041;-64
2022/01/27 03:06:51;;;;;;;39.00;15.75;;;5.90;99.90;;;;;;5046068;28;20079;-64
2022/01/27 03:09:17;;;;;;;31.23;12.30;;;6.00;99.90;;;;;;5038950;28;20033;-64
2022/01/27 03:11:48;;;;;;;29.17;12.07;;;5.90;99.90;;;;;;5023705;28;20046;-64
2022/01/27 03:14:20;;;;;;;26.42;12.20;;;6.00;99.90;;;;;;5045955;28;20045;-64
2022/01/27 03:16:47;;;;;;;25.90;12.43;;;6.00;99.90;;;;;;5038588;28;20044;-64
2022/01/27 03:19:13;;;;;;;26.27;10.80;;;6.00;99.90;;;;;;5044388;28;20099;-64
2022/01/27 03:21:39;;;;;;;15.93;7.32;;;5.90;99.90;;;;;;5040502;28;20056;-64
2022/01/27 03:24:06;;;;;;;17.77;10.32;;;5.90;99.90;;;;;;5016467;28;20084;-64
2022/01/27 03:26:32;;;;;;;22.13;12.15;;;5.90;99.90;;;;;;5005936;28;20110;-64
2022/01/27 03:28:58;;;;;;;24.00;11.15;;;5.90;99.90;;;;;;5044621;28;20037;-64
2022/01/27 03:31:25;;;;;;;24.13;11.50;;;5.80;99.90;;;;;;5048663;28;20487;-64
2022/01/27 03:33:50;;;;;;;21.30;9.98;;;5.80;99.90;;;;;;5034074;28;20388;-64
2022/01/27 03:36:16;;;;;;;24.92;11.48;;;5.90;99.90;;;;;;5033485;28;20053;-64
2022/01/27 03:38:43;;;;;;;21.35;12.65;;;5.90;99.90;;;;;;5013476;28;20457;-65
2022/01/27 03:41:10;;;;;;;20.77;11.00;;;5.90;99.90;;;;;;5015608;28;20106;-65
2022/01/27 03:43:37;;;;;;;31.55;13.65;;;5.90;99.90;;;;;;5046991;28;20514;-64
2022/01/27 03:46:04;;;;;;;26.42;12.25;;;6.00;99.90;;;;;;5043496;28;20042;-65
2022/01/27 03:48:30;;;;;;;21.10;9.45;;;6.00;99.90;;;;;;5029001;28;20052;-64
2022/01/27 03:50:56;;;;;;;36.88;15.60;;;6.00;99.90;;;;;;5039342;28;20037;-64
2022/01/27 03:53:22;;;;;;;31.55;14.75;;;6.00;99.90;;;;;;5017938;28;20041;-64
2022/01/27 03:55:50;;;;;;;22.92;10.65;;;6.10;99.90;;;;;;5037006;28;20123;-64
2022/01/27 03:58:16;;;;;;;30.77;15.45;;;6.00;99.90;;;;;;5030801;28;20120;-64
2022/01/27 04:00:43;;;;;;;13.88;7.80;;;6.10;99.90;;;;;;5045994;28;20041;-64
2022/01/27 04:03:11;;;;;;;36.67;15.10;;;6.10;99.90;;;;;;5047321;28;20405;-64
2022/01/27 04:05:42;;;;;;;19.95;10.95;;;6.10;99.90;;;;;;5039044;28;20164;-64
2022/01/27 04:08:10;;;;;;;23.33;10.65;;;6.10;99.90;;;;;;5021496;28;20048;-65
2022/01/27 04:10:37;;;;;;;23.80;12.95;;;6.10;99.90;;;;;;5045021;28;20674;-64
2022/01/27 04:13:04;;;;;;;23.15;9.60;;;6.10;99.90;;;;;;5027896;28;20047;-64
2022/01/27 04:15:31;;;;;;;28.75;14.13;;;6.10;99.90;;;;;;5045023;28;20064;-64
2022/01/27 04:17:57;;;;;;;25.08;11.57;;;6.10;99.90;;;;;;5045633;28;20068;-64
2022/01/27 04:20:22;;;;;;;10.38;5.28;;;6.10;99.90;;;;;;5045235;28;20056;-64
2022/01/27 04:22:48;;;;;;;27.92;10.55;;;6.10;99.90;;;;;;5024745;28;20041;-64
2022/01/27 04:25:15;;;;;;;33.50;15.13;;;6.10;99.90;;;;;;5031302;28;20877;-64
2022/01/27 04:27:45;;;;;;;23.77;10.60;;;6.10;99.90;;;;;;5020522;28;20055;-64
2022/01/27 04:30:18;;;;;;;28.45;11.57;;;6.20;99.90;;;;;;5040999;28;20033;-64
2022/01/27 04:32:50;;;;;;;35.00;13.80;;;6.20;99.90;;;;;;5024968;28;20476;-64
2022/01/27 04:35:19;;;;;;;22.95;9.98;;;6.20;99.90;;;;;;5043329;28;20067;-64
2022/01/27 04:38:15;;;;;;;16.23;8.53;;;6.20;99.90;;;;;;5029038;28;20103;-64
2022/01/27 04:40:50;;;;;;;28.30;11.88;;;6.20;99.90;;;;;;5033533;28;20045;-64
2022/01/27 04:48:38;;;;;;;22.08;10.38;;;6.30;99.90;;;;;;5008904;28;20537;-64
2022/01/27 04:51:07;;;;;;;35.03;15.32;;;6.30;99.90;;;;;;5046333;28;20386;-64
2022/01/27 04:53:40;;;;;;;15.57;9.43;;;6.20;99.90;;;;;;5043695;28;20103;-64
2022/01/27 04:56:10;;;;;;;29.05;12.13;;;6.20;99.90;;;;;;5038404;28;20048;-64
2022/01/27 04:58:36;;;;;;;12.43;5.85;;;6.20;99.90;;;;;;5026577;28;20052;-64
2022/01/27 05:01:04;;;;;;;36.90;13.07;;;6.20;99.90;;;;;;5042989;28;20051;-64
2022/01/27 05:05:58;;;;;;;42.15;18.02;;;6.20;99.90;;;;;;5027371;28;20534;-63
2022/01/27 05:08:24;;;;;;;20.95;10.02;;;6.10;99.90;;;;;;5045660;28;20116;-63
2022/01/27 05:10:58;;;;;;;20.42;9.18;;;6.10;99.90;;;;;;5047687;28;20048;-63
2022/01/27 05:13:28;;;;;;;32.28;13.63;;;6.00;99.90;;;;;;5027700;28;20045;-63
2022/01/27 05:15:54;;;;;;;18.30;8.60;;;6.00;99.90;;;;;;5029557;28;20060;-62
2022/01/27 05:18:20;;;;;;;23.33;9.13;;;6.00;99.90;;;;;;5045342;28;20491;-63
2022/01/27 05:20:47;;;;;;;21.15;7.95;;;6.00;99.90;;;;;;5034601;28;20420;-63
2022/01/27 05:23:13;;;;;;;14.38;7.20;;;5.90;99.90;;;;;;5033215;28;20049;-62
2022/01/27 05:25:40;;;;;;;27.65;11.88;;;5.90;99.90;;;;;;5026030;28;20055;-63
2022/01/27 05:28:07;;;;;;;28.50;11.65;;;5.90;99.90;;;;;;5046119;28;20040;-63
2022/01/27 05:30:34;;;;;;;29.65;13.00;;;5.90;99.90;;;;;;5044729;28;20430;-62
2022/01/27 05:33:01;;;;;;;30.95;12.07;;;5.90;99.90;;;;;;5046738;28;20387;-63
2022/01/27 05:35:26;;;;;;;38.85;13.93;;;5.90;99.90;;;;;;5026636;28;20053;-63
2022/01/27 05:37:53;;;;;;;30.55;11.07;;;5.90;99.90;;;;;;5046072;28;20127;-63
2022/01/27 05:40:19;;;;;;;41.75;14.50;;;5.90;99.90;;;;;;5025860;28;20037;-63
2022/01/27 05:42:44;;;;;;;21.90;9.05;;;5.90;99.90;;;;;;5045397;28;20041;-64
2022/01/27 05:45:10;;;;;;;28.63;10.43;;;6.00;99.90;;;;;;5045480;28;20114;-63
2022/01/27 05:47:36;;;;;;;24.35;12.15;;;6.00;99.90;;;;;;5044871;28;20048;-63
2022/01/27 05:50:03;;;;;;;31.00;13.25;;;6.00;99.90;;;;;;5043718;28;20633;-63
2022/01/27 05:52:30;;;;;;;25.45;12.60;;;5.90;99.90;;;;;;5044553;28;20091;-64
2022/01/27 05:54:56;;;;;;;39.58;15.57;;;6.00;99.90;;;;;;5045502;28;20048;-64
2022/01/27 05:57:22;;;;;;;26.33;10.93;;;5.90;99.90;;;;;;5027985;28;20423;-64
2022/01/27 05:59:48;;;;;;;29.98;12.20;;;5.90;99.90;;;;;;5043320;28;20223;-64
2022/01/27 06:02:14;;;;;;;31.35;12.48;;;5.90;99.90;;;;;;5027871;28;20477;-64
2022/01/27 06:04:40;;;;;;;29.67;11.50;;;6.00;99.90;;;;;;5044878;28;20475;-64
2022/01/27 06:07:06;;;;;;;33.55;14.95;;;6.00;99.90;;;;;;5045495;28;20110;-63
2022/01/27 06:09:31;;;;;;;23.67;10.25;;;5.90;99.90;;;;;;5010371;28;20049;-64
2022/01/27 06:11:57;;;;;;;11.23;6.40;;;5.90;99.90;;;;;;5046037;28;20044;-63
2022/01/27 06:14:23;;;;;;;22.08;10.45;;;5.90;99.90;;;;;;5030804;28;20040;-64
2022/01/27 06:16:49;;;;;;;20.13;8.38;;;5.90;99.90;;;;;;5011834;28;20292;-64
2022/01/27 06:19:15;;;;;;;18.25;7.55;;;6.00;99.90;;;;;;5033212;28;20048;-64
2022/01/27 06:21:43;;;;;;;27.02;10.55;;;6.00;99.90;;;;;;5020878;28;20495;-64
2022/01/27 06:24:10;;;;;;;22.92;9.52;;;6.00;99.90;;;;;;5018882;28;20131;-64
2022/01/27 06:26:36;;;;;;;22.05;7.28;;;6.10;99.90;;;;;;5030312;28;20072;-64
2022/01/27 06:29:02;;;;;;;33.47;13.02;;;6.10;99.90;;;;;;5035437;28;20467;-64
2022/01/27 06:31:27;;;;;;;21.63;8.30;;;6.10;99.90;;;;;;5032633;28;20029;-63
2022/01/27 06:33:53;;;;;;;23.30;9.40;;;6.10;99.90;;;;;;5033096;28;20068;-63
2022/01/27 06:36:19;;;;;;;14.18;5.80;;;6.10;99.90;;;;;;5020703;28;20061;-63
2022/01/27 06:38:46;;;;;;;18.33;7.57;;;6.20;99.90;;;;;;5034748;28;20034;-64
2022/01/27 06:41:13;;;;;;;22.23;9.85;;;6.20;99.90;;;;;;5032599;28;20055;-64
2022/01/27 06:43:39;;;;;;;17.58;8.45;;;6.20;99.90;;;;;;5048073;28;20399;-64
2022/01/27 06:46:04;;;;;;;12.52;5.82;;;6.20;99.90;;;;;;5032789;28;20045;-63
2022/01/27 06:48:30;;;;;;;12.85;5.55;;;6.20;99.90;;;;;;5014552;28;20045;-64
2022/01/27 06:50:56;;;;;;;18.50;7.75;;;6.20;99.90;;;;;;5045496;28;20051;-64
2022/01/27 06:53:23;;;;;;;17.60;6.80;;;6.30;99.90;;;;;;5026735;28;20095;-64
2022/01/27 06:55:49;;;;;;;10.57;4.68;;;6.30;99.90;;;;;;5033412;28;20499;-63
2022/01/27 06:58:15;;;;;;;6.68;4.18;;;6.30;99.90;;;;;;5020019;28;20029;-63
2022/01/27 07:00:41;;;;;;;8.57;4.47;;;6.30;99.90;;;;;;5022050;28;20545;-63
2022/01/27 07:03:07;;;;;;;18.92;7.47;;;6.30;99.90;;;;;;5040758;28;20064;-63
2022/01/27 07:05:33;;;;;;;21.67;8.30;;;6.40;99.90;;;;;;5014890;28;20045;-63
2022/01/27 07:08:00;;;;;;;14.40;5.22;;;6.40;99.90;;;;;;5035280;28;20462;-64
2022/01/27 07:10:26;;;;;;;24.58;8.70;;;6.40;99.90;;;;;;5044693;28;20044;-64
2022/01/27 07:12:51;;;;;;;13.13;5.65;;;6.40;99.90;;;;;;5048769;28;20076;-63
2022/01/27 07:15:18;;;;;;;7.43;3.90;;;6.40;99.90;;;;;;5042767;28;20395;-63
2022/01/27 07:17:44;;;;;;;8.65;3.85;;;6.50;99.90;;;;;;5030276;28;20096;-64
2022/01/27 07:20:10;;;;;;;16.70;6.85;;;6.50;99.90;;;;;;5049656;28;20077;-65
2022/01/27 07:22:37;;;;;;;6.28;3.38;;;6.50;99.90;;;;;;5048047;28;20111;-64
2022/01/27 07:25:04;;;;;;;9.68;3.35;;;6.50;99.90;;;;;;5049368;28;20128;-64
2022/01/27 07:27:33;;;;;;;7.45;4.32;;;6.50;99.90;;;;;;5030475;28;20597;-64
2022/01/27 07:30:00;;;;;;;6.03;3.00;;;6.60;99.90;;;;;;5037894;28;20491;-63
2022/01/27 07:32:26;;;;;;;6.57;3.10;;;6.60;99.90;;;;;;5047241;28;20053;-64
2022/01/27 07:34:52;;;;;;;8.43;3.45;;;6.70;99.90;;;;;;5035943;28;20551;-64
2022/01/27 07:37:17;;;;;;;5.30;3.58;;;6.70;99.90;;;;;;5029070;28;20032;-64
2022/01/27 07:39:43;;;;;;;8.57;3.60;;;6.70;99.90;;;;;;5038413;28;20037;-64
2022/01/27 07:42:09;;;;;;;7.28;4.32;;;6.70;99.90;;;;;;5049059;28;20082;-64
2022/01/27 07:44:35;;;;;;;6.13;3.60;;;6.80;99.90;;;;;;5048247;28;20094;-64
2022/01/27 07:47:01;;;;;;;6.60;2.83;;;6.90;99.90;;;;;;5034855;28;20495;-64
2022/01/27 07:49:28;;;;;;;5.38;3.53;;;6.90;99.90;;;;;;5028526;28;20052;-64
2022/01/27 07:51:55;;;;;;;7.38;3.20;;;6.90;99.90;;;;;;5046782;28;20041;-64
2022/01/27 07:54:20;;;;;;;3.60;2.00;;;6.90;99.90;;;;;;5048277;28;20094;-64
2022/01/27 07:56:46;;;;;;;6.60;3.13;;;7.00;99.90;;;;;;5044258;28;20483;-64
2022/01/27 07:59:12;;;;;;;22.25;7.97;;;7.00;99.90;;;;;;5047106;28;20033;-63
2022/01/27 08:01:38;;;;;;;10.15;3.60;;;7.00;99.90;;;;;;5046524;28;20037;-64
2022/01/27 08:04:04;;;;;;;17.10;5.55;;;7.10;99.90;;;;;;5049270;28;20041;-64
2022/01/27 08:06:29;;;;;;;9.40;3.53;;;7.10;99.90;;;;;;5047258;28;20483;-64
2022/01/27 08:08:55;;;;;;;13.02;5.13;;;7.10;99.90;;;;;;5046687;28;20040;-64
2022/01/27 08:11:21;;;;;;;7.13;2.97;;;7.20;99.90;;;;;;5041783;28;20562;-64
2022/01/27 08:13:47;;;;;;;8.43;2.58;;;7.10;99.90;;;;;;5048043;28;20045;-64
2022/01/27 08:16:13;;;;;;;14.20;4.85;;;7.20;99.90;;;;;;5049062;28;20094;-64
2022/01/27 08:18:39;;;;;;;12.77;3.92;;;7.20;99.90;;;;;;5047371;28;20080;-65
2022/01/27 08:21:04;;;;;;;23.88;8.40;;;7.30;99.90;;;;;;5030635;28;20045;-64
2022/01/27 08:23:30;;;;;;;21.95;6.90;;;7.30;99.90;;;;;;5043899;28;20041;-64
2022/01/27 08:26:06;;;;;;;22.05;8.23;;;7.40;99.90;;;;;;5046833;28;20045;-64
2022/01/27 08:29:04;;;;;;;11.65;4.18;;;7.40;99.90;;;;;;5047708;28;20060;-64
2022/01/27 08:31:19;;;;;;;10.88;3.28;;;7.40;99.90;;;;;;5044260;28;20056;-64
2022/01/27 08:33:44;;;;;;;5.20;2.40;;;7.50;99.90;;;;;;5013669;28;20116;-64
2022/01/27 08:36:10;;;;;;;26.50;8.85;;;7.50;99.90;;;;;;5040808;28;20120;-64
2022/01/27 08:38:41;;;;;;;31.25;9.63;;;7.60;99.90;;;;;;5044854;28;20045;-64
2022/01/27 08:41:06;;;;;;;5.82;2.22;;;7.60;99.90;;;;;;5044276;28;20124;-64
2022/01/27 08:43:32;;;;;;;42.60;12.82;;;7.60;99.90;;;;;;5045539;28;20128;-64
2022/01/27 08:45:59;;;;;;;12.63;4.18;;;7.60;99.90;;;;;;5043556;28;20044;-64
2022/01/27 08:48:27;;;;;;;8.60;4.15;;;7.70;99.90;;;;;;5041406;28;20049;-64
2022/01/27 08:50:59;;;;;;;27.25;5.95;;;7.70;99.90;;;;;;5029887;28;20045;-64
2022/01/27 08:53:26;;;;;;;37.17;9.93;;;7.80;99.90;;;;;;5041248;28;20077;-64
2022/01/27 08:55:52;;;;;;;7.20;3.05;;;7.80;99.90;;;;;;5046126;28;20041;-64
2022/01/27 08:58:20;;;;;;;10.63;3.33;;;7.90;99.90;;;;;;5040743;28;20388;-64
2022/01/27 09:00:46;;;;;;;28.15;8.45;;;7.90;99.90;;;;;;5045440;28;20082;-64
2022/01/27 09:03:12;;;;;;;38.47;10.30;;;7.90;99.90;;;;;;5046074;28;20033;-64
2022/01/27 09:05:38;;;;;;;27.17;8.20;;;7.90;99.90;;;;;;5045948;28;20570;-64
2022/01/27 09:08:04;;;;;;;34.88;8.93;;;8.00;99.90;;;;;;5395630;22;20044;-64
2022/01/27 09:10:31;;;;;;;31.83;7.22;;;8.00;99.90;;;;;;5066438;28;20119;-64
2022/01/27 09:12:59;;;;;;;36.40;8.88;;;8.00;99.90;;;;;;5064032;28;20434;-64
2022/01/27 09:15:25;;;;;;;36.78;7.78;;;8.00;99.90;;;;;;5065678;28;20039;-64
2022/01/27 09:17:51;;;;;;;34.35;8.57;;;8.00;99.90;;;;;;5062411;28;20044;-64
2022/01/27 09:20:17;;;;;;;19.85;4.20;;;8.10;99.90;;;;;;5065211;28;20085;-64
2022/01/27 09:22:42;;;;;;;23.83;6.22;;;8.10;99.90;;;;;;5080009;28;20358;-64
2022/01/27 09:25:17;;;;;;;12.65;3.08;;;8.10;99.90;;;;;;5060032;28;20047;-65
2022/01/27 09:27:46;;;;;;;32.80;7.32;;;8.10;99.90;;;;;;5063890;28;20105;-64
2022/01/27 09:30:15;;;;;;;34.10;7.13;;;8.10;99.90;;;;;;5061487;28;20044;-64
2022/01/27 09:32:41;;;;;;;29.40;7.43;;;8.10;99.90;;;;;;5055813;28;20090;-65
2022/01/27 09:35:07;;;;;;;32.00;7.55;;;8.10;99.90;;;;;;5047798;28;20052;-64
2022/01/27 09:37:33;;;;;;;35.70;8.35;;;8.10;99.90;;;;;;5056598;28;20032;-65
2022/01/27 09:39:59;;;;;;;40.85;8.27;;;8.20;99.90;;;;;;5055403;28;20474;-64
2022/01/27 09:42:28;;;;;;;40.53;8.88;;;8.20;99.90;;;;;;5058203;28;20040;-64
2022/01/27 09:44:58;;;;;;;37.38;7.63;;;8.30;99.90;;;;;;5056055;28;20463;-64
2022/01/27 09:47:28;;;;;;;19.90;4.45;;;8.20;99.90;;;;;;5059390;28;20127;-65
2022/01/27 09:50:05;;;;;;;38.15;9.02;;;8.30;99.90;;;;;;5058624;28;20051;-64
2022/01/27 09:52:34;;;;;;;41.60;8.60;;;8.30;99.90;;;;;;5064554;28;20529;-64
2022/01/27 09:55:00;;;;;;;52.85;8.93;;;8.30;99.90;;;;;;5061113;28;20079;-64
2022/01/27 09:57:25;;;;;;;34.03;7.00;;;8.30;99.90;;;;;;5057659;28;20047;-64
2022/01/27 09:59:51;;;;;;;41.65;9.00;;;8.30;99.90;;;;;;5081576;28;20052;-64
2022/01/27 10:02:21;;;;;;;42.17;8.50;;;8.40;99.90;;;;;;5057669;28;20044;-64
2022/01/27 10:04:57;;;;;;;8.43;3.05;;;8.40;99.90;;;;;;5066263;28;20044;-65
2022/01/27 10:07:30;;;;;;;37.65;8.00;;;8.40;99.90;;;;;;5058836;28;20053;-64
2022/01/27 10:10:00;;;;;;;34.83;7.35;;;8.40;99.90;;;;;;5062489;28;20049;-65
2022/01/27 10:12:32;;;;;;;41.75;7.78;;;8.40;99.90;;;;;;5067029;28;20071;-64
2022/01/27 10:15:12;;;;;;;41.58;8.35;;;8.40;99.90;;;;;;5064837;28;20036;-64
2022/01/27 10:17:58;;;;;;;31.70;6.57;;;8.50;99.90;;;;;;5063070;28;20052;-64
2022/01/27 10:20:24;;;;;;;49.28;7.90;;;8.50;99.90;;;;;;5067745;28;20084;-64
2022/01/27 10:23:31;;;;;;;42.83;8.00;;;8.50;99.90;;;;;;5059336;28;20147;-64
2022/01/27 10:26:08;;;;;;;26.50;5.32;;;8.50;99.90;;;;;;5036654;28;20104;-64
2022/01/27 10:31:19;;;;;;;31.77;7.20;;;8.60;99.90;;;;;;5044494;28;20060;-64
2022/01/27 10:34:02;;;;;;;31.23;5.32;;;8.60;99.90;;;;;;5059275;28;20053;-64
2022/01/27 10:36:31;;;;;;;40.70;7.47;;;8.60;99.90;;;;;;5065050;28;20130;-64
2022/01/27 10:39:09;;;;;;;34.25;6.38;;;8.70;99.90;;;;;;5058937;28;20128;-64
2022/01/27 10:41:38;;;;;;;44.10;6.82;;;8.70;99.90;;;;;;5064019;28;20056;-64
2022/01/27 10:44:18;;;;;;;34.42;6.93;;;8.80;99.90;;;;;;5067102;28;20448;-64
2022/01/27 10:47:13;;;;;;;33.65;6.95;;;8.80;99.90;;;;;;5053223;28;20044;-64
2022/01/27 10:49:54;;;;;;;38.78;7.50;;;8.80;99.90;;;;;;5065135;28;20159;-64
2022/01/27 10:52:32;;;;;;;40.08;8.15;;;8.80;99.90;;;;;;5058855;28;20130;-64
2022/01/27 10:55:00;;;;;;;41.97;7.35;;;8.80;99.90;;;;;;5061421;28;20036;-64
2022/01/27 10:57:27;;;;;;;33.72;7.13;;;8.90;99.90;;;;;;5055852;28;20060;-64
2022/01/27 11:00:09;;;;;;;35.30;8.07;;;8.90;99.90;;;;;;5058108;28;20120;-64
2022/01/27 11:03:07;;;;;;;34.80;6.53;;;9.00;99.90;;;;;;5061565;28;20059;-64
2022/01/27 11:05:44;;;;;;;42.88;7.15;;;9.00;99.90;;;;;;5064719;28;20474;-64
2022/01/27 11:08:10;;;;;;;42.42;8.90;;;9.00;99.90;;;;;;5060970;28;20040;-64
2022/01/27 11:10:36;;;;;;;35.28;7.30;;;9.00;99.90;;;;;;5058752;28;20060;-64
2022/01/27 11:13:04;;;;;;;44.38;7.53;;;9.10;99.90;;;;;;5062411;28;20048;-64
2022/01/27 11:15:30;;;;;;;33.40;7.45;;;9.10;99.90;;;;;;5062971;28;20068;-64
2022/01/27 11:17:56;;;;;;;41.83;7.10;;;9.20;99.90;;;;;;5058144;28;20072;-64
2022/01/27 11:20:35;;;;;;;42.53;7.32;;;9.20;99.90;;;;;;5064245;28;20041;-64
2022/01/27 11:23:25;;;;;;;45.28;7.45;;;9.20;99.90;;;;;;5066707;28;20496;-64
2022/01/27 11:25:51;;;;;;;45.22;7.93;;;9.10;99.90;;;;;;5057081;28;20119;-64
2022/01/27 11:28:21;;;;;;;47.03;8.48;;;9.10;99.90;;;;;;5055367;28;20051;-64
2022/01/27 11:31:16;;;;;;;42.45;8.38;;;9.00;99.90;;;;;;5053562;28;20407;-64
2022/01/27 11:33:57;;;;;;;52.55;9.45;;;9.00;99.90;;;;;;5064587;28;20032;-64
2022/01/27 11:36:24;;;;;;;35.95;7.95;;;9.00;99.90;;;;;;5066444;28;20557;-64
2022/01/27 11:38:50;;;;;;;33.88;7.03;;;9.10;99.90;;;;;;5066335;28;20524;-64
2022/01/27 11:41:42;;;;;;;43.17;8.20;;;9.10;99.90;;;;;;5063598;28;20036;-64
2022/01/27 11:44:26;;;;;;;40.10;7.13;;;9.00;99.90;;;;;;5054641;28;20052;-64
2022/01/27 11:47:11;;;;;;;41.95;8.13;;;9.10;99.90;;;;;;5063173;28;20167;-64
2022/01/27 11:49:54;;;;;;;39.20;6.88;;;9.10;99.90;;;;;;5066602;28;20493;-64
2022/01/27 11:52:32;;;;;;;37.30;8.23;;;9.10;99.90;;;;;;5063579;28;20063;-64
2022/01/27 11:55:23;;;;;;;42.63;5.10;;;9.20;99.90;;;;;;5059886;28;20033;-64
2022/01/27 11:57:51;;;;;;;34.05;6.32;;;9.10;99.90;;;;;;5052480;28;20063;-64
2022/01/27 12:00:19;;;;;;;35.58;7.15;;;9.10;99.90;;;;;;5052389;28;20037;-64
2022/01/27 12:03:04;;;;;;;36.47;7.82;;;9.10;99.90;;;;;;5056286;28;20045;-64
2022/01/27 12:05:30;;;;;;;39.13;7.32;;;9.10;99.90;;;;;;5061377;28;20076;-64
2022/01/27 12:08:19;;;;;;;43.63;8.23;;;9.10;99.90;;;;;;5065993;28;20060;-64
2022/01/27 12:10:49;;;;;;;39.47;8.77;;;9.10;99.90;;;;;;5064858;28;20104;-64
2022/01/27 12:13:46;;;;;;;;;;;9.10;99.90;;;;;;5057372;28;20098;-64
2022/01/27 12:16:26;;;;;;;33.65;7.45;;;9.10;99.90;;;;;;5064131;28;20378;-64
2022/01/27 12:19:00;;;;;;;37.63;7.90;;;9.20;99.90;;;;;;5067013;28;20478;-64
2022/01/27 12:21:43;;;;;;;44.33;8.10;;;9.10;99.90;;;;;;5064798;28;20045;-64
2022/01/27 12:24:12;;;;;;;39.15;7.78;;;9.10;99.90;;;;;;5064222;28;20491;-64
2022/01/27 12:26:50;;;;;;;42.40;8.93;;;9.20;99.90;;;;;;5060009;28;20051;-64
2022/01/27 12:29:24;;;;;;;39.30;8.45;;;9.10;99.90;;;;;;5062659;28;20079;-64
2022/01/27 12:31:51;;;;;;;43.55;9.18;;;9.10;99.90;;;;;;5045931;28;20375;-64
2022/01/27 12:34:18;;;;;;;52.20;9.05;;;9.00;99.90;;;;;;5060959;28;20473;-64
2022/01/27 12:37:14;;;;;;;39.05;7.80;;;9.00;99.90;;;;;;5059290;28;20120;-64
2022/01/27 12:39:43;;;;;;;43.85;9.00;;;9.00;99.90;;;;;;5060134;28;20131;-64
2022/01/27 12:42:15;;;;;;;50.92;8.88;;;9.00;99.90;;;;;;5062797;28;20124;-64
2022/01/27 12:44:54;;;;;;;43.08;9.05;;;9.00;99.90;;;;;;5064402;28;20050;-64
2022/01/27 12:47:20;;;;;;;47.45;9.43;;;9.00;99.90;;;;;;5054868;28;20080;-64
2022/01/27 12:50:03;;;;;;;38.33;6.22;;;9.00;99.90;;;;;;5064847;28;20385;-64
2022/01/27 12:52:32;;;;;;;42.53;8.48;;;9.00;99.90;;;;;;5057052;28;20074;-64
2022/01/27 12:54:57;;;;;;;40.35;8.88;;;9.00;99.90;;;;;;5056176;28;20067;-64
2022/01/27 12:57:28;;;;;;;43.08;8.52;;;9.00;99.90;;;;;;5064901;28;20048;-64
2022/01/27 12:59:56;;;;;;;51.08;8.52;;;9.00;99.90;;;;;;5057084;28;20119;-64
2022/01/27 13:02:23;;;;;;;38.60;8.05;;;9.00;99.90;;;;;;5060590;28;20052;-64
2022/01/27 13:04:56;;;;;;;41.25;7.88;;;9.00;99.90;;;;;;5055753;28;20048;-64
2022/01/27 13:07:23;;;;;;;45.25;8.90;;;8.90;99.90;;;;;;5050547;28;20043;-64
2022/01/27 13:10:15;;;;;;;47.33;9.18;;;8.90;99.90;;;;;;5062427;28;20055;-64
2022/01/27 13:12:48;;;;;;;42.25;7.30;;;8.90;99.90;;;;;;5058523;28;20452;-64
2022/01/27 13:15:26;;;;;;;50.10;8.13;;;8.90;99.90;;;;;;5065084;28;20186;-64
2022/01/27 13:18:00;;;;;;;42.38;8.48;;;8.90;99.90;;;;;;5061220;28;20036;-64
2022/01/27 13:20:36;;;;;;;41.22;8.02;;;8.90;99.90;;;;;;5066094;28;20040;-64
2022/01/27 13:23:12;;;;;;;41.08;8.00;;;8.90;99.90;;;;;;5056144;28;20532;-64
2022/01/27 13:25:43;;;;;;;49.45;9.68;;;8.90;99.90;;;;;;5063616;28;20056;-64
2022/01/27 13:28:21;;;;;;;37.72;7.65;;;8.90;99.90;;;;;;5058736;28;20045;-64
2022/01/27 13:33:42;;;;;;;39.35;8.00;;;8.90;99.90;;;;;;5045291;22;20056;-64
2022/01/27 13:36:16;;;;;;;46.65;8.35;;;8.80;99.90;;;;;;5036279;28;20049;-64
2022/01/27 13:39:03;;;;;;;37.75;8.07;;;8.80;99.90;;;;;;5040204;28;20114;-64
2022/01/27 13:41:29;;;;;;;38.22;7.72;;;8.80;99.90;;;;;;5047003;28;20052;-64
2022/01/27 13:44:28;;;;;;;47.10;7.50;;;8.80;99.90;;;;;;5042128;28;20501;-64
2022/01/27 13:46:58;;;;;;;41.25;7.00;;;8.90;99.90;;;;;;5043744;28;20064;-64
2022/01/27 13:49:32;;;;;;;53.37;9.73;;;8.80;99.90;;;;;;5054137;28;20049;-64
2022/01/27 13:52:13;;;;;;;42.35;7.38;;;8.80;99.90;;;;;;5053812;28;20398;-64
2022/01/27 13:54:47;;;;;;;52.33;10.00;;;8.70;99.90;;;;;;5058266;28;20057;-64
2022/01/27 13:57:17;;;;;;;36.95;6.55;;;8.70;99.90;;;;;;5044626;28;20399;-64
2022/01/27 14:02:33;;;;;;;46.63;7.88;;;8.60;99.90;;;;;;5037725;28;20053;-64